Time;durP1;ratioP1;P1;durP2;ratioP2;P2;SDS_P1;SDS_P2;PMS_P1;PMS_P2;Temp;Humidity;BMP_temperature;BMP_pressure;BME280_temperature;BME280_humidity;BME280_pressure;Samples;Min_cycle;Max_cycle;Signal;HPM_P1;HPM_P2
2023/05/21 00:01:18;;;;;;;8.10;6.45;;;;;;;;;;5012245;28;20109;-66
2023/05/21 00:03:48;;;;;;;7.65;6.82;;;;;;;;;;5012435;28;20484;-66
2023/05/21 00:06:14;;;;;;;7.82;7.03;;;;;;;;;;5012110;28;20038;-67
2023/05/21 00:08:40;;;;;;;9.50;6.63;;;;;;;;;;5012408;28;20037;-67
2023/05/21 00:11:06;;;;;;;8.77;6.70;;;;;;;;;;5012159;28;20164;-67
2023/05/21 00:13:31;;;;;;;7.63;6.40;;;;;;;;;;5012338;28;20045;-66
2023/05/21 00:15:57;;;;;;;7.25;6.55;;;;;;;;;;5012360;28;20041;-67
2023/05/21 00:18:24;;;;;;;9.20;6.43;;;;;;;;;;5012351;28;20030;-66
2023/05/21 00:20:50;;;;;;;9.57;6.40;;;;;;;;;;5012320;28;20416;-67
2023/05/21 00:23:17;;;;;;;8.73;6.57;;;;;;;;;;5012216;28;20037;-66
2023/05/21 00:25:44;;;;;;;10.38;6.70;;;;;;;;;;4962276;28;1411546;-66
2023/05/21 00:28:10;;;;;;;6.93;6.22;;;;;;;;;;5012643;28;20046;-66
2023/05/21 00:30:35;;;;;;;8.68;6.95;;;;;;;;;;5012653;28;20129;-66
2023/05/21 00:33:01;;;;;;;9.75;6.78;;;;;;;;;;5012637;28;20115;-66
2023/05/21 00:35:28;;;;;;;8.73;6.75;;;;;;;;;;5012930;28;20104;-65
2023/05/21 00:37:53;;;;;;;7.97;7.18;;;;;;;;;;5012584;28;20033;-66
2023/05/21 00:40:20;;;;;;;8.13;6.38;;;;;;;;;;5012530;28;20026;-66
2023/05/21 00:42:46;;;;;;;7.20;6.50;;;;;;;;;;5012790;28;20049;-66
2023/05/21 00:45:13;;;;;;;8.18;6.43;;;;;;;;;;5012527;28;20516;-67
2023/05/21 00:47:40;;;;;;;6.90;6.20;;;;;;;;;;5012363;28;20084;-66
2023/05/21 00:50:07;;;;;;;8.00;6.60;;;;;;;;;;5012468;28;20026;-66
2023/05/21 00:52:40;;;;;;;6.70;6.07;;;;;;;;;;5012443;28;20050;-66
2023/05/21 00:55:06;;;;;;;7.47;6.57;;;;;;;;;;5012728;28;20022;-67
2023/05/21 00:57:32;;;;;;;7.80;6.65;;;;;;;;;;5012452;28;20026;-67
2023/05/21 00:59:58;;;;;;;8.75;6.80;;;;;;;;;;5012292;28;20084;-67
2023/05/21 01:02:24;;;;;;;7.32;5.93;;;;;;;;;;5012738;28;20068;-67
2023/05/21 01:04:54;;;;;;;6.75;6.15;;;;;;;;;;5012315;28;20017;-67
2023/05/21 01:07:20;;;;;;;7.75;6.70;;;;;;;;;;5012266;28;20033;-66
2023/05/21 01:09:46;;;;;;;9.90;6.70;;;;;;;;;;5012323;28;20030;-66
2023/05/21 01:12:12;;;;;;;9.48;6.15;;;;;;;;;;5012837;28;20084;-67
2023/05/21 01:14:39;;;;;;;8.15;6.72;;;;;;;;;;5012216;28;20488;-67
2023/05/21 01:17:09;;;;;;;9.43;6.35;;;;;;;;;;5012284;28;20580;-66
2023/05/21 01:19:35;;;;;;;7.10;6.20;;;;;;;;;;5012253;28;20553;-66
2023/05/21 01:22:06;;;;;;;9.32;6.57;;;;;;;;;;5012493;28;20085;-66
2023/05/21 01:24:32;;;;;;;8.20;6.63;;;;;;;;;;5011939;28;20161;-66
2023/05/21 01:27:00;;;;;;;8.05;6.50;;;;;;;;;;5012347;28;20061;-66
2023/05/21 01:29:26;;;;;;;6.70;6.00;;;;;;;;;;5012063;28;20026;-66
2023/05/21 01:32:15;;;;;;;7.28;6.50;;;;;;;;;;5012395;28;20030;-66
2023/05/21 01:34:59;;;;;;;7.68;6.05;;;;;;;;;;5012383;28;20100;-66
2023/05/21 01:37:40;;;;;;;8.00;5.85;;;;;;;;;;5014398;28;20057;-66
2023/05/21 01:41:02;;;;;;;6.55;5.95;;;;;;;;;;5015529;28;20037;-66
2023/05/21 01:43:31;;;;;;;7.95;6.45;;;;;;;;;;4974033;28;20031;-66
2023/05/21 01:45:58;;;;;;;7.73;6.40;;;;;;;;;;5008557;28;20430;-66
2023/05/21 01:48:26;;;;;;;8.65;5.93;;;;;;;;;;5015366;28;20541;-66
2023/05/21 01:50:54;;;;;;;7.90;6.07;;;;;;;;;;5015655;28;20030;-66
2023/05/21 01:53:20;;;;;;;7.95;6.28;;;;;;;;;;5015507;28;20048;-66
2023/05/21 01:55:47;;;;;;;7.88;5.88;;;;;;;;;;5015292;28;20033;-65
2023/05/21 01:58:14;;;;;;;6.57;5.88;;;;;;;;;;5015191;28;20024;-66
2023/05/21 02:00:40;;;;;;;8.88;6.53;;;;;;;;;;5015472;28;20030;-66
2023/05/21 02:03:06;;;;;;;6.72;6.03;;;;;;;;;;5015093;28;20033;-65
2023/05/21 02:05:32;;;;;;;8.15;6.30;;;;;;;;;;5015047;28;20539;-66
2023/05/21 02:07:58;;;;;;;7.03;6.03;;;;;;;;;;5015343;28;20030;-66
2023/05/21 02:10:24;;;;;;;7.03;6.15;;;;;;;;;;5015043;28;20030;-66
2023/05/21 02:12:50;;;;;;;8.55;6.25;;;;;;;;;;5015161;28;20099;-66
2023/05/21 02:15:19;;;;;;;7.68;6.88;;;;;;;;;;5014901;28;20373;-66
2023/05/21 02:17:50;;;;;;;6.97;6.30;;;;;;;;;;5015089;28;20029;-66
2023/05/21 02:20:16;;;;;;;7.60;6.28;;;;;;;;;;5014834;28;20030;-66
2023/05/21 02:22:51;;;;;;;6.78;6.00;;;;;;;;;;5014737;28;20056;-67
2023/05/21 02:25:18;;;;;;;7.22;6.05;;;;;;;;;;5014518;28;20061;-66
2023/05/21 02:27:45;;;;;;;6.97;6.28;;;;;;;;;;5014579;28;20057;-66
2023/05/21 02:30:12;;;;;;;6.95;5.90;;;;;;;;;;5014857;28;20144;-66
2023/05/21 02:32:41;;;;;;;7.47;6.75;;;;;;;;;;5014518;28;20548;-67
2023/05/21 02:35:08;;;;;;;6.88;6.15;;;;;;;;;;5014537;28;20034;-67
2023/05/21 02:37:34;;;;;;;7.20;6.43;;;;;;;;;;5014388;28;20076;-67
2023/05/21 02:40:06;;;;;;;7.07;6.32;;;;;;;;;;5014739;28;20029;-66
2023/05/21 02:42:32;;;;;;;6.78;6.07;;;;;;;;;;5014336;28;20081;-66
2023/05/21 02:44:58;;;;;;;6.75;6.00;;;;;;;;;;5014360;28;20021;-66
2023/05/21 02:47:24;;;;;;;6.38;5.75;;;;;;;;;;5014298;28;20034;-65
2023/05/21 02:49:51;;;;;;;7.57;6.40;;;;;;;;;;5013791;28;20037;-66
2023/05/21 02:52:18;;;;;;;6.72;6.03;;;;;;;;;;5014155;28;20022;-66
2023/05/21 02:54:44;;;;;;;6.68;5.97;;;;;;;;;;5014151;28;20550;-66
2023/05/21 02:57:10;;;;;;;7.00;6.10;;;;;;;;;;5014040;28;20529;-66
2023/05/21 02:59:35;;;;;;;6.95;6.10;;;;;;;;;;5014387;28;20100;-66
2023/05/21 03:02:01;;;;;;;6.78;6.00;;;;;;;;;;5013926;28;20025;-67
2023/05/21 03:04:29;;;;;;;6.78;6.07;;;;;;;;;;5014035;28;20038;-67
2023/05/21 03:06:56;;;;;;;7.15;6.45;;;;;;;;;;5013792;28;20034;-66
2023/05/21 03:09:21;;;;;;;8.18;6.28;;;;;;;;;;5014152;28;20389;-66
2023/05/21 03:11:48;;;;;;;7.15;6.28;;;;;;;;;;5013827;28;20032;-66
2023/05/21 03:14:13;;;;;;;7.72;6.50;;;;;;;;;;5013826;28;20111;-66
2023/05/21 03:16:40;;;;;;;6.57;5.95;;;;;;;;;;5013972;28;20045;-67
2023/05/21 03:19:10;;;;;;;7.03;6.30;;;;;;;;;;5013730;28;20030;-66
2023/05/21 03:21:36;;;;;;;6.75;6.00;;;;;;;;;;5013894;28;20026;-67
2023/05/21 03:24:02;;;;;;;6.18;5.57;;;;;;;;;;5028841;28;20026;-67
2023/05/21 03:26:31;;;;;;;6.57;5.78;;;;;;;;;;5013320;28;20104;-66
2023/05/21 03:28:56;;;;;;;7.75;6.00;;;;;;;;;;5013612;28;20547;-66
2023/05/21 03:31:23;;;;;;;6.60;5.57;;;;;;;;;;5013423;28;20033;-66
2023/05/21 03:33:49;;;;;;;6.43;5.65;;;;;;;;;;5013498;28;20026;-66
2023/05/21 03:36:14;;;;;;;6.57;5.85;;;;;;;;;;5013658;28;20126;-66
2023/05/21 03:38:40;;;;;;;7.15;6.18;;;;;;;;;;5013701;28;20052;-66
2023/05/21 03:41:07;;;;;;;6.05;5.45;;;;;;;;;;5013261;28;20028;-66
2023/05/21 03:43:33;;;;;;;6.93;6.22;;;;;;;;;;5013409;28;20489;-66
2023/05/21 03:45:58;;;;;;;7.80;5.97;;;;;;;;;;5013117;28;20026;-66
2023/05/21 03:48:24;;;;;;;6.53;5.90;;;;;;;;;;5013522;28;20039;-66
2023/05/21 03:50:50;;;;;;;6.63;5.85;;;;;;;;;;5013400;28;20034;-66
2023/05/21 03:53:16;;;;;;;6.68;6.07;;;;;;;;;;5013415;28;20018;-66
2023/05/21 03:55:41;;;;;;;7.15;6.07;;;;;;;;;;5013382;28;20026;-67
2023/05/21 03:58:08;;;;;;;6.20;5.60;;;;;;;;;;5013108;28;20022;-66
2023/05/21 04:00:36;;;;;;;6.68;5.97;;;;;;;;;;5012688;28;20022;-66
2023/05/21 04:03:05;;;;;;;7.10;5.68;;;;;;;;;;5013380;28;20104;-66
2023/05/21 04:05:32;;;;;;;7.50;6.15;;;;;;;;;;5013170;28;20069;-66
2023/05/21 04:07:58;;;;;;;6.43;5.38;;;;;;;;;;5012893;28;20156;-65
2023/05/21 04:10:24;;;;;;;6.30;5.70;;;;;;;;;;5012910;28;20038;-66
2023/05/21 04:12:51;;;;;;;6.88;6.28;;;;;;;;;;5012873;28;20033;-66
2023/05/21 04:15:19;;;;;;;7.57;6.22;;;;;;;;;;5012886;28;20425;-66
2023/05/21 04:17:45;;;;;;;7.97;5.68;;;;;;;;;;5012837;28;20036;-66
2023/05/21 04:20:12;;;;;;;6.95;6.22;;;;;;;;;;5013017;28;20030;-65
2023/05/21 04:22:38;;;;;;;6.45;5.85;;;;;;;;;;5013075;28;20389;-66
2023/05/21 04:25:04;;;;;;;6.78;5.65;;;;;;;;;;5012695;28;20104;-66
2023/05/21 04:27:30;;;;;;;6.45;5.85;;;;;;;;;;5012674;28;20432;-66
2023/05/21 04:29:56;;;;;;;6.95;6.25;;;;;;;;;;5012671;28;20034;-66
2023/05/21 04:32:22;;;;;;;6.40;5.65;;;;;;;;;;5012646;28;20034;-66
2023/05/21 04:34:48;;;;;;;6.88;6.13;;;;;;;;;;5012605;28;20080;-66
2023/05/21 04:37:16;;;;;;;6.70;5.65;;;;;;;;;;5012665;28;20030;-66
2023/05/21 04:39:42;;;;;;;6.40;5.70;;;;;;;;;;5012914;28;20493;-66
2023/05/21 04:42:09;;;;;;;7.65;6.18;;;;;;;;;;5012460;28;20022;-66
2023/05/21 04:44:36;;;;;;;9.30;6.53;;;;;;;;;;5012885;28;20256;-66
2023/05/21 04:47:02;;;;;;;7.18;6.22;;;;;;;;;;5012704;28;20030;-67
2023/05/21 04:49:28;;;;;;;6.60;5.90;;;;;;;;;;5012524;28;20493;-67
2023/05/21 04:51:54;;;;;;;7.22;6.15;;;;;;;;;;5012727;28;20060;-66
2023/05/21 04:54:19;;;;;;;6.22;5.63;;;;;;;;;;5012448;28;20124;-66
2023/05/21 04:56:46;;;;;;;5.82;5.22;;;;;;;;;;5012378;28;20133;-66
2023/05/21 04:59:12;;;;;;;7.70;6.28;;;;;;;;;;5012678;28;20172;-66
2023/05/21 05:01:38;;;;;;;6.82;5.63;;;;;;;;;;5012906;28;20425;-66
2023/05/21 05:04:04;;;;;;;7.40;6.15;;;;;;;;;;5012664;28;20018;-67
2023/05/21 05:06:29;;;;;;;6.75;6.07;;;;;;;;;;5012206;28;20030;-67
2023/05/21 05:08:55;;;;;;;6.07;5.47;;;;;;;;;;5012356;28;20033;-66
2023/05/21 05:11:21;;;;;;;6.80;5.95;;;;;;;;;;5012985;28;20032;-67
2023/05/21 05:13:46;;;;;;;6.95;6.15;;;;;;;;;;5016345;28;20103;-66
2023/05/21 05:16:13;;;;;;;6.85;6.07;;;;;;;;;;5016020;28;20432;-66
2023/05/21 05:18:39;;;;;;;6.55;5.85;;;;;;;;;;5015963;28;20033;-66
2023/05/21 05:21:04;;;;;;;6.47;5.60;;;;;;;;;;5015979;28;20030;-66
2023/05/21 05:23:30;;;;;;;6.75;6.05;;;;;;;;;;5016218;28;20092;-66
2023/05/21 05:25:55;;;;;;;6.82;6.07;;;;;;;;;;5015657;28;20141;-66
2023/05/21 05:28:21;;;;;;;8.20;5.90;;;;;;;;;;5016401;28;20082;-66
2023/05/21 05:30:46;;;;;;;6.45;5.85;;;;;;;;;;5015713;28;20030;-66
2023/05/21 05:33:12;;;;;;;6.97;6.28;;;;;;;;;;5015657;28;20067;-66
2023/05/21 05:35:37;;;;;;;6.47;5.78;;;;;;;;;;5015878;28;20030;-66
2023/05/21 05:38:03;;;;;;;6.30;5.68;;;;;;;;;;5015592;28;20025;-66
2023/05/21 05:40:28;;;;;;;6.88;5.88;;;;;;;;;;5015557;28;20045;-67
2023/05/21 05:42:54;;;;;;;7.25;6.07;;;;;;;;;;5015789;28;20128;-66
2023/05/21 05:45:19;;;;;;;6.03;5.43;;;;;;;;;;5015388;28;20559;-66
2023/05/21 05:47:45;;;;;;;6.15;5.55;;;;;;;;;;5015454;28;20037;-66
2023/05/21 05:50:11;;;;;;;6.03;5.43;;;;;;;;;;5015638;28;20034;-66
2023/05/21 05:52:36;;;;;;;6.55;5.82;;;;;;;;;;5015317;28;20389;-67
2023/05/21 05:55:02;;;;;;;7.15;5.85;;;;;;;;;;5015906;28;20026;-67
2023/05/21 05:57:28;;;;;;;6.78;6.07;;;;;;;;;;5015627;28;20432;-67
2023/05/21 05:59:53;;;;;;;6.68;5.80;;;;;;;;;;5015439;28;20030;-67
2023/05/21 06:02:19;;;;;;;7.68;6.32;;;;;;;;;;5015458;28;20037;-67
2023/05/21 06:04:45;;;;;;;7.28;6.00;;;;;;;;;;5015062;28;20474;-67
2023/05/21 06:07:10;;;;;;;6.70;5.90;;;;;;;;;;5014992;28;20033;-67
2023/05/21 06:09:37;;;;;;;6.75;6.05;;;;;;;;;;5015591;28;20022;-67
2023/05/21 06:12:06;;;;;;;6.55;5.85;;;;;;;;;;5014967;28;20030;-66
2023/05/21 06:14:31;;;;;;;6.55;5.70;;;;;;;;;;5015146;28;20026;-67
2023/05/21 06:16:57;;;;;;;6.22;5.63;;;;;;;;;;5014859;28;20366;-66
2023/05/21 06:19:23;;;;;;;6.50;5.75;;;;;;;;;;5014765;28;20026;-67
2023/05/21 06:21:49;;;;;;;6.75;5.40;;;;;;;;;;5014846;28;20033;-67
2023/05/21 06:24:14;;;;;;;7.10;5.88;;;;;;;;;;5014566;28;20064;-67
2023/05/21 06:26:40;;;;;;;6.55;5.63;;;;;;;;;;5014516;28;20131;-67
2023/05/21 06:29:06;;;;;;;6.30;5.70;;;;;;;;;;5014666;28;20022;-67
2023/05/21 06:31:32;;;;;;;6.20;5.60;;;;;;;;;;5015237;28;20034;-68
2023/05/21 06:33:58;;;;;;;6.28;5.68;;;;;;;;;;5014808;28;20420;-67
2023/05/21 06:36:28;;;;;;;6.65;6.00;;;;;;;;;;5014802;28;20034;-68
2023/05/21 06:38:57;;;;;;;6.05;5.45;;;;;;;;;;5014465;28;20057;-67
2023/05/21 06:41:22;;;;;;;6.18;5.57;;;;;;;;;;5014404;28;20080;-67
2023/05/21 06:43:48;;;;;;;7.25;5.82;;;;;;;;;;5014864;28;20018;-67
2023/05/21 06:46:13;;;;;;;5.95;5.35;;;;;;;;;;5014597;28;20109;-67
2023/05/21 06:48:39;;;;;;;6.40;5.80;;;;;;;;;;5014260;28;20485;-67
2023/05/21 06:51:05;;;;;;;7.97;5.75;;;;;;;;;;5014205;28;20029;-68
2023/05/21 06:53:30;;;;;;;5.85;5.25;;;;;;;;;;5014130;28;20018;-68
2023/05/21 06:55:56;;;;;;;6.63;5.90;;;;;;;;;;5014176;28;20022;-68
2023/05/21 06:58:21;;;;;;;6.10;5.50;;;;;;;;;;5014068;28;20398;-67
2023/05/21 07:00:47;;;;;;;6.03;5.43;;;;;;;;;;5014162;28;20148;-69
2023/05/21 07:03:13;;;;;;;5.95;5.30;;;;;;;;;;5013958;28;20026;-68
2023/05/21 07:05:38;;;;;;;5.85;5.35;;;;;;;;;;5013876;28;20231;-68
2023/05/21 07:08:04;;;;;;;6.18;5.57;;;;;;;;;;5014182;28;20033;-68
2023/05/21 07:10:29;;;;;;;5.80;5.13;;;;;;;;;;5013922;28;20025;-69
2023/05/21 07:12:56;;;;;;;6.38;5.57;;;;;;;;;;5013827;28;20080;-68
2023/05/21 07:15:22;;;;;;;6.03;5.32;;;;;;;;;;5014147;28;20389;-67
2023/05/21 07:17:47;;;;;;;6.35;5.75;;;;;;;;;;5013710;28;20038;-68
2023/05/21 07:20:13;;;;;;;6.47;5.65;;;;;;;;;;5013822;28;20018;-68
2023/05/21 07:22:38;;;;;;;6.60;5.63;;;;;;;;;;5013666;28;20448;-69
2023/05/21 07:25:05;;;;;;;6.50;5.88;;;;;;;;;;5013653;28;20042;-68
2023/05/21 07:27:31;;;;;;;6.57;5.32;;;;;;;;;;5013713;28;20042;-68
2023/05/21 07:29:56;;;;;;;6.93;5.57;;;;;;;;;;5013594;28;20022;-68
2023/05/21 07:32:22;;;;;;;6.03;5.43;;;;;;;;;;5013437;28;20026;-68
2023/05/21 07:34:47;;;;;;;6.05;5.20;;;;;;;;;;5013002;28;20040;-68
2023/05/21 07:37:13;;;;;;;5.88;5.28;;;;;;;;;;5013407;28;20037;-68
2023/05/21 07:39:38;;;;;;;6.00;5.40;;;;;;;;;;5013772;28;20030;-68
2023/05/21 07:42:04;;;;;;;5.70;5.20;;;;;;;;;;5013315;28;20033;-68
2023/05/21 07:44:30;;;;;;;5.68;5.10;;;;;;;;;;5028530;28;20030;-68
2023/05/21 07:46:56;;;;;;;6.05;5.45;;;;;;;;;;5013466;28;20030;-69
2023/05/21 07:49:22;;;;;;;6.32;5.38;;;;;;;;;;5013223;28;20030;-69
2023/05/21 07:51:48;;;;;;;6.15;5.40;;;;;;;;;;5013464;28;20033;-69
2023/05/21 07:54:14;;;;;;;6.20;5.60;;;;;;;;;;5013221;28;20018;-69
2023/05/21 07:56:39;;;;;;;5.70;5.10;;;;;;;;;;5013126;28;20018;-69
2023/05/21 07:59:05;;;;;;;6.03;5.22;;;;;;;;;;5013199;28;20084;-69
2023/05/21 08:01:31;;;;;;;6.00;5.30;;;;;;;;;;5013891;28;20477;-69
2023/05/21 08:04:00;;;;;;;5.97;5.38;;;;;;;;;;5013901;28;20108;-68
2023/05/21 08:06:26;;;;;;;5.70;5.10;;;;;;;;;;5014679;28;20103;-69
2023/05/21 08:08:53;;;;;;;5.72;5.20;;;;;;;;;;5020313;28;20029;-70
2023/05/21 08:11:18;;;;;;;5.97;5.38;;;;;;;;;;5018167;28;20527;-69
2023/05/21 08:13:44;;;;;;;5.47;4.90;;;;;;;;;;5029858;28;20070;-69
2023/05/21 08:16:10;;;;;;;5.25;4.75;;;;;;;;;;5013182;28;20030;-70
2023/05/21 08:18:35;;;;;;;6.03;5.13;;;;;;;;;;5013484;28;20029;-69
2023/05/21 08:21:01;;;;;;;5.57;5.00;;;;;;;;;;5010137;28;20449;-70
2023/05/21 08:23:26;;;;;;;5.45;4.93;;;;;;;;;;5002367;28;20026;-69
2023/05/21 08:25:52;;;;;;;5.63;5.07;;;;;;;;;;5002874;28;20034;-69
2023/05/21 08:28:18;;;;;;;5.75;5.00;;;;;;;;;;5005819;28;20068;-68
2023/05/21 08:30:43;;;;;;;5.43;4.93;;;;;;;;;;5015313;28;20037;-71
2023/05/21 08:33:09;;;;;;;5.40;4.88;;;;;;;;;;5011874;28;20030;-68
2023/05/21 08:35:34;;;;;;;5.97;5.38;;;;;;;;;;5007938;28;20477;-69
2023/05/21 08:38:00;;;;;;;5.35;4.78;;;;;;;;;;5009345;28;20026;-69
2023/05/21 08:40:25;;;;;;;6.05;5.10;;;;;;;;;;5004226;28;20113;-69
2023/05/21 08:42:51;;;;;;;5.90;5.30;;;;;;;;;;5004896;28;20026;-69
2023/05/21 08:45:20;;;;;;;5.22;4.72;;;;;;;;;;5004156;28;20057;-70
2023/05/21 08:47:47;;;;;;;5.57;5.03;;;;;;;;;;5004548;28;20049;-69
2023/05/21 08:50:17;;;;;;;5.70;5.10;;;;;;;;;;5008899;28;20046;-69
2023/05/21 08:52:42;;;;;;;5.47;4.97;;;;;;;;;;5006457;28;20091;-69
2023/05/21 08:55:09;;;;;;;5.15;4.65;;;;;;;;;;5009444;28;20521;-69
2023/05/21 08:57:35;;;;;;;5.20;4.70;;;;;;;;;;5006922;28;20347;-70
2023/05/21 09:00:03;;;;;;;5.00;4.60;;;;;;;;;;5005369;28;20374;-67
2023/05/21 09:02:32;;;;;;;5.35;4.85;;;;;;;;;;5007038;28;20112;-69
2023/05/21 09:05:01;;;;;;;5.20;4.70;;;;;;;;;;5009563;28;20026;-69
2023/05/21 09:07:29;;;;;;;5.15;4.70;;;;;;;;;;5016523;28;20096;-68
2023/05/21 09:09:56;;;;;;;5.78;5.18;;;;;;;;;;4999863;28;20038;-68
2023/05/21 09:12:26;;;;;;;5.80;5.20;;;;;;;;;;4998520;28;20030;-67
2023/05/21 09:14:52;;;;;;;5.88;4.88;;;;;;;;;;5006151;28;20037;-69
2023/05/21 09:17:19;;;;;;;5.32;4.75;;;;;;;;;;5009759;28;20038;-68
2023/05/21 09:20:13;;;;;;;5.32;4.82;;;;;;;;;;5014985;28;20025;-67
2023/05/21 09:22:48;;;;;;;6.40;5.13;;;;;;;;;;5013237;28;20041;-67
2023/05/21 09:25:22;;;;;;;5.50;5.00;;;;;;;;;;4995762;28;20054;-66
2023/05/21 09:27:48;;;;;;;5.50;5.00;;;;;;;;;;4994710;28;20121;-67
2023/05/21 09:30:16;;;;;;;5.25;4.75;;;;;;;;;;4994624;28;20157;-67
2023/05/21 09:32:43;;;;;;;5.10;4.60;;;;;;;;;;4994778;28;20030;-67
2023/05/21 09:35:13;;;;;;;5.35;4.85;;;;;;;;;;4994612;28;20038;-67
2023/05/21 09:37:43;;;;;;;5.32;4.82;;;;;;;;;;4994729;28;20591;-66
2023/05/21 09:40:18;;;;;;;5.53;4.93;;;;;;;;;;5007225;28;20056;-67
2023/05/21 09:42:53;;;;;;;5.10;4.65;;;;;;;;;;5013255;28;20080;-67
2023/05/21 09:45:23;;;;;;;5.43;4.65;;;;;;;;;;5015663;28;20117;-68
2023/05/21 09:47:51;;;;;;;6.05;4.93;;;;;;;;;;5017900;28;20088;-67
2023/05/21 09:50:23;;;;;;;4.97;4.57;;;;;;;;;;5015563;28;20030;-67
2023/05/21 09:52:51;;;;;;;8.18;4.82;;;;;;;;;;5014139;28;20393;-68
2023/05/21 09:55:20;;;;;;;5.55;5.05;;;;;;;;;;5028973;28;20029;-68
2023/05/21 09:57:47;;;;;;;5.27;4.77;;;;;;;;;;5014077;28;20049;-68
2023/05/21 10:00:21;;;;;;;5.82;4.85;;;;;;;;;;5013671;28;20088;-68
2023/05/21 10:02:54;;;;;;;5.40;4.90;;;;;;;;;;5014214;28;20109;-68
2023/05/21 10:05:20;;;;;;;5.47;4.97;;;;;;;;;;5013890;28;20038;-68
2023/05/21 10:07:53;;;;;;;5.97;4.70;;;;;;;;;;5029244;28;20075;-67
2023/05/21 10:10:20;;;;;;;5.00;4.50;;;;;;;;;;5014163;28;20049;-67
2023/05/21 10:12:48;;;;;;;5.63;4.97;;;;;;;;;;5014124;28;20029;-68
2023/05/21 10:15:19;;;;;;;5.90;4.68;;;;;;;;;;5014081;28;20109;-68
2023/05/21 10:17:47;;;;;;;5.00;4.50;;;;;;;;;;5013834;28;20037;-69
2023/05/21 10:20:13;;;;;;;5.10;4.60;;;;;;;;;;5013097;28;20025;-70
2023/05/21 10:22:39;;;;;;;4.65;4.25;;;;;;;;;;5013324;28;20030;-68
2023/05/21 10:25:08;;;;;;;5.30;4.80;;;;;;;;;;5013577;28;20049;-68
2023/05/21 10:27:36;;;;;;;5.18;4.68;;;;;;;;;;5014003;28;20481;-68
2023/05/21 10:30:02;;;;;;;4.90;4.50;;;;;;;;;;5013331;28;20030;-69
2023/05/21 10:32:29;;;;;;;4.53;4.13;;;;;;;;;;5013272;28;20033;-68
2023/05/21 10:34:56;;;;;;;5.20;4.65;;;;;;;;;;5012981;28;20029;-68
2023/05/21 10:37:26;;;;;;;5.30;4.53;;;;;;;;;;5012899;28;20109;-68
2023/05/21 10:39:52;;;;;;;;;;;;;;;;;;5013390;28;20225;-68
2023/05/21 10:42:38;;;;;;;4.50;4.10;;;;;;;;;;5013242;28;20027;-69
2023/05/21 10:45:35;;;;;;;5.40;4.60;;;;;;;;;;5012924;28;20055;-68
2023/05/21 10:48:33;;;;;;;5.63;4.72;;;;;;;;;;5012793;28;20335;-67
2023/05/21 10:51:08;;;;;;;5.10;4.60;;;;;;;;;;4990517;28;20050;-68
2023/05/21 10:54:05;;;;;;;5.45;4.95;;;;;;;;;;5013476;28;20041;-68
2023/05/21 10:57:12;;;;;;;5.05;4.55;;;;;;;;;;5013404;28;20084;-69
2023/05/21 10:59:47;;;;;;;4.95;4.45;;;;;;;;;;5012729;28;20029;-68
2023/05/21 11:02:14;;;;;;;4.93;4.50;;;;;;;;;;5012886;28;20532;-68
2023/05/21 11:04:43;;;;;;;5.25;4.75;;;;;;;;;;5012308;28;20060;-68
2023/05/21 11:07:11;;;;;;;5.07;4.55;;;;;;;;;;5012386;28;20280;-67
2023/05/21 11:09:37;;;;;;;5.22;4.10;;;;;;;;;;5011325;28;20029;-68
2023/05/21 11:12:03;;;;;;;5.40;4.45;;;;;;;;;;5012429;28;20033;-69
2023/05/21 11:14:41;;;;;;;4.63;4.22;;;;;;;;;;5012284;28;20034;-70
2023/05/21 11:17:11;;;;;;;4.95;4.38;;;;;;;;;;5012464;28;20030;-68
2023/05/21 11:19:37;;;;;;;4.82;4.40;;;;;;;;;;5012408;28;20034;-69
2023/05/21 11:22:20;;;;;;;5.30;4.80;;;;;;;;;;5012436;28;20034;-67
2023/05/21 11:24:46;;;;;;;4.90;4.50;;;;;;;;;;5011832;28;20021;-68
2023/05/21 11:27:12;;;;;;;4.88;4.47;;;;;;;;;;5012345;28;20037;-68
2023/05/21 11:29:44;;;;;;;4.82;4.40;;;;;;;;;;5012199;28;20511;-67
2023/05/21 11:32:11;;;;;;;5.40;4.38;;;;;;;;;;5012207;28;20025;-67
2023/05/21 11:34:41;;;;;;;5.40;4.90;;;;;;;;;;5011877;28;20394;-67
2023/05/21 11:37:39;;;;;;;4.50;4.10;;;;;;;;;;5011863;28;20065;-67
2023/05/21 11:40:21;;;;;;;4.65;4.25;;;;;;;;;;5011575;28;20084;-67
2023/05/21 11:42:51;;;;;;;5.60;4.30;;;;;;;;;;5011651;28;20480;-68
2023/05/21 11:45:19;;;;;;;5.60;4.72;;;;;;;;;;5012026;28;20096;-68
2023/05/21 11:47:46;;;;;;;4.68;4.28;;;;;;;;;;5011807;28;20037;-67
2023/05/21 11:50:13;;;;;;;5.10;4.57;;;;;;;;;;5011997;28;20033;-67
2023/05/21 11:52:39;;;;;;;5.00;4.60;;;;;;;;;;5011736;28;20026;-67
2023/05/21 11:55:06;;;;;;;5.10;4.60;;;;;;;;;;5011593;28;20304;-67
2023/05/21 11:57:32;;;;;;;4.47;4.07;;;;;;;;;;5011688;28;20381;-68
2023/05/21 11:59:59;;;;;;;5.28;4.78;;;;;;;;;;5012027;28;20030;-67
2023/05/21 12:02:32;;;;;;;5.50;5.00;;;;;;;;;;5011635;28;20030;-67
2023/05/21 12:04:59;;;;;;;4.82;4.43;;;;;;;;;;5011507;28;20033;-68
2023/05/21 12:07:30;;;;;;;5.22;4.75;;;;;;;;;;5011193;28;20044;-68
2023/05/21 12:09:55;;;;;;;4.63;4.22;;;;;;;;;;5011647;28;20109;-69
2023/05/21 12:12:24;;;;;;;4.50;4.10;;;;;;;;;;5011281;28;20538;-68
2023/05/21 12:14:52;;;;;;;5.03;4.53;;;;;;;;;;5011271;28;20161;-68
2023/05/21 12:17:19;;;;;;;4.78;4.38;;;;;;;;;;5011216;28;20520;-68
2023/05/21 12:19:45;;;;;;;5.03;4.57;;;;;;;;;;5011106;28;20192;-67
2023/05/21 12:22:11;;;;;;;4.95;4.45;;;;;;;;;;5011277;28;20022;-68
2023/05/21 12:24:37;;;;;;;5.18;4.68;;;;;;;;;;5011198;28;20428;-68
2023/05/21 12:27:08;;;;;;;4.55;4.15;;;;;;;;;;5011087;28;20033;-67
2023/05/21 12:29:40;;;;;;;4.72;4.22;;;;;;;;;;5011152;28;20026;-68
2023/05/21 12:32:08;;;;;;;5.18;4.72;;;;;;;;;;5011106;28;20049;-69
2023/05/21 12:34:44;;;;;;;4.72;4.32;;;;;;;;;;5010977;28;20026;-68
2023/05/21 12:37:11;;;;;;;5.03;4.45;;;;;;;;;;5026033;28;20029;-67
2023/05/21 12:39:41;;;;;;;5.00;4.60;;;;;;;;;;5011368;28;20040;-68
2023/05/21 12:42:08;;;;;;;6.78;4.80;;;;;;;;;;5010902;28;20041;-68
2023/05/21 12:44:34;;;;;;;7.22;4.80;;;;;;;;;;5011014;28;20117;-66
2023/05/21 12:47:00;;;;;;;5.25;4.72;;;;;;;;;;5010832;28;20508;-68
2023/05/21 12:49:59;;;;;;;7.03;5.05;;;;;;;;;;5010992;28;20029;-69
2023/05/21 12:52:25;;;;;;;6.10;5.50;;;;;;;;;;5002885;28;20033;-69
2023/05/21 12:54:53;;;;;;;6.50;5.60;;;;;;;;;;5010812;28;20030;-68
2023/05/21 12:57:22;;;;;;;5.90;5.30;;;;;;;;;;5025910;28;20437;-68
2023/05/21 12:59:55;;;;;;;6.85;5.18;;;;;;;;;;5011233;28;20113;-67
2023/05/21 13:02:28;;;;;;;5.90;5.40;;;;;;;;;;5010748;28;20125;-66
2023/05/21 13:04:59;;;;;;;6.00;5.40;;;;;;;;;;5009512;28;20076;-67
2023/05/21 13:07:27;;;;;;;8.75;5.65;;;;;;;;;;5010752;28;20081;-69
2023/05/21 13:09:53;;;;;;;6.45;5.85;;;;;;;;;;5010625;28;20065;-70
2023/05/21 13:12:21;;;;;;;5.85;5.35;;;;;;;;;;5010858;28;20033;-69
2023/05/21 13:14:47;;;;;;;6.07;5.47;;;;;;;;;;5011009;28;20038;-72
2023/05/21 13:17:14;;;;;;;6.70;5.40;;;;;;;;;;5010659;28;20029;-72
2023/05/21 13:19:39;;;;;;;8.50;6.05;;;;;;;;;;5010888;28;20034;-71
2023/05/21 13:22:06;;;;;;;6.63;5.57;;;;;;;;;;5011055;28;20022;-68
2023/05/21 13:24:31;;;;;;;5.90;5.30;;;;;;;;;;5010399;28;20037;-70
2023/05/21 13:26:57;;;;;;;6.70;5.88;;;;;;;;;;5010654;28;20038;-70
2023/05/21 13:29:22;;;;;;;6.30;5.70;;;;;;;;;;5010505;28;20021;-71
2023/05/21 13:31:48;;;;;;;9.75;5.55;;;;;;;;;;5010547;28;20028;-67
2023/05/21 13:34:14;;;;;;;6.38;5.75;;;;;;;;;;5013996;28;20034;-67
2023/05/21 13:36:39;;;;;;;7.25;5.57;;;;;;;;;;5014382;28;20228;-71
2023/05/21 13:39:05;;;;;;;7.22;6.28;;;;;;;;;;5014238;28;20029;-70
2023/05/21 13:41:31;;;;;;;8.18;6.50;;;;;;;;;;5014113;28;20033;-67
2023/05/21 13:43:57;;;;;;;8.10;5.97;;;;;;;;;;5014309;28;20030;-67
2023/05/21 13:46:23;;;;;;;9.20;6.10;;;;;;;;;;5029210;28;20509;-71
2023/05/21 13:48:48;;;;;;;8.25;6.00;;;;;;;;;;5014777;28;20029;-69
2023/05/21 13:51:14;;;;;;;8.93;5.68;;;;;;;;;;5013867;28;20537;-71
2023/05/21 13:53:40;;;;;;;6.13;5.53;;;;;;;;;;5014924;28;20056;-74
2023/05/21 13:56:05;;;;;;;6.53;5.80;;;;;;;;;;5014807;28;20113;-67
2023/05/21 13:58:34;;;;;;;9.02;6.05;;;;;;;;;;5014486;28;20045;-70
2023/05/21 14:01:03;;;;;;;8.38;5.50;;;;;;;;;;5014187;28;20485;-73
2023/05/21 14:03:29;;;;;;;7.10;5.70;;;;;;;;;;5013643;28;20030;-67
2023/05/21 14:05:55;;;;;;;6.75;5.82;;;;;;;;;;5014243;28;20026;-73
2023/05/21 14:08:22;;;;;;;7.40;5.90;;;;;;;;;;5017054;28;20032;-71
2023/05/21 14:10:48;;;;;;;9.68;5.50;;;;;;;;;;5017711;28;20041;-72
2023/05/21 14:13:14;;;;;;;9.52;5.95;;;;;;;;;;5013789;28;20037;-69
2023/05/21 14:15:43;;;;;;;8.40;6.15;;;;;;;;;;5013406;28;20444;-67
2023/05/21 14:18:11;;;;;;;7.93;5.73;;;;;;;;;;5013288;28;20037;-68
2023/05/21 14:20:37;;;;;;;8.45;5.85;;;;;;;;;;5013513;28;20026;-66
2023/05/21 14:23:04;;;;;;;10.05;5.90;;;;;;;;;;5013311;28;20034;-67
2023/05/21 14:25:29;;;;;;;6.75;5.20;;;;;;;;;;5013117;28;20046;-67
2023/05/21 14:27:55;;;;;;;5.72;4.90;;;;;;;;;;5013231;28;20112;-66
2023/05/21 14:30:21;;;;;;;6.53;5.20;;;;;;;;;;5013388;28;20381;-67
2023/05/21 14:32:46;;;;;;;5.90;5.25;;;;;;;;;;5013104;28;20026;-69
2023/05/21 14:35:12;;;;;;;6.15;4.90;;;;;;;;;;5013191;28;20111;-72
2023/05/21 14:37:38;;;;;;;6.75;5.32;;;;;;;;;;5013270;28;20044;-70
2023/05/21 14:40:06;;;;;;;10.82;5.82;;;;;;;;;;5028054;28;20473;-71
2023/05/21 14:42:32;;;;;;;6.03;5.25;;;;;;;;;;5012867;28;20112;-69
2023/05/21 14:44:58;;;;;;;8.88;5.35;;;;;;;;;;5011529;28;20026;-70
2023/05/21 14:47:24;;;;;;;7.65;5.38;;;;;;;;;;5012684;28;20033;-68